Time;durP1;ratioP1;P1;durP2;ratioP2;P2;SDS_P1;SDS_P2;PMS_P1;PMS_P2;Temp;Humidity;BMP_temperature;BMP_pressure;BME280_temperature;BME280_humidity;BME280_pressure;Samples;Min_cycle;Max_cycle;Signal;HPM_P1;HPM_P2
2022/11/14 00:00:04;;;;;;;;;;;25.40;74.20;;;;;;5025679;28;19920;-69
2022/11/14 00:02:31;;;;;;;;;;;25.50;75.10;;;;;;5021003;28;19921;-67
2022/11/14 00:04:58;;;;;;;;;;;25.60;73.80;;;;;;5002936;28;19963;-66
2022/11/14 00:07:24;;;;;;;;;;;25.70;73.40;;;;;;5019014;28;20378;-68
2022/11/14 00:09:51;;;;;;;;;;;25.70;73.10;;;;;;5024060;28;20393;-67
2022/11/14 00:12:18;;;;;;;;;;;25.80;72.10;;;;;;5036954;28;19913;-69
2022/11/14 00:14:44;;;;;;;;;;;25.90;69.90;;;;;;5020157;28;19913;-68
2022/11/14 00:17:11;;;;;;;;;;;25.90;70.40;;;;;;5020504;28;19920;-67
2022/11/14 00:19:37;;;;;;;;;;;25.90;68.50;;;;;;5021398;28;19972;-70
2022/11/14 00:22:04;;;;;;;;;;;26.00;68.20;;;;;;5021590;28;20652;-69
2022/11/14 00:24:31;;;;;;;;;;;26.10;67.10;;;;;;5019277;28;19913;-67
2022/11/14 00:26:58;;;;;;;;;;;26.20;66.40;;;;;;5020942;28;19913;-72
2022/11/14 00:29:24;;;;;;;;;;;26.30;65.30;;;;;;5018280;28;20030;-72
2022/11/14 00:31:51;;;;;;;;;;;26.30;66.20;;;;;;5026097;28;20358;-70
2022/11/14 00:34:17;;;;;;;;;;;26.20;65.30;;;;;;5018722;28;19917;-69
2022/11/14 00:36:44;;;;;;;;;;;26.20;66.00;;;;;;5019577;28;20396;-69
2022/11/14 00:39:12;;;;;;;;;;;26.20;66.10;;;;;;5018745;28;20388;-67
2022/11/14 00:41:39;;;;;;;;;;;26.20;66.30;;;;;;5020520;28;19931;-67
2022/11/14 00:44:06;;;;;;;;;;;26.30;67.60;;;;;;5020528;28;19914;-73
2022/11/14 00:46:33;;;;;;;;;;;26.50;67.10;;;;;;5019530;28;19913;-69
2022/11/14 00:49:00;;;;;;;;;;;26.50;66.50;;;;;;5019546;28;19913;-70
2022/11/14 00:51:27;;;;;;;;;;;26.60;67.30;;;;;;5035387;28;20004;-71
2022/11/14 00:53:53;;;;;;;;;;;26.60;66.70;;;;;;5020256;28;19913;-69
2022/11/14 00:56:20;;;;;;;;;;;26.70;66.50;;;;;;5019794;28;19913;-65
2022/11/14 00:58:46;;;;;;;;;;;26.80;66.70;;;;;;5013467;28;19924;-68
2022/11/14 01:01:13;;;;;;;;;;;27.00;66.40;;;;;;5016216;28;19920;-67
2022/11/14 01:03:40;;;;;;;;;;;27.10;65.90;;;;;;5017757;28;19935;-67
2022/11/14 01:06:07;;;;;;;;;;;27.30;66.20;;;;;;5030649;28;19913;-69
2022/11/14 01:08:34;;;;;;;;;;;27.40;65.70;;;;;;5038381;28;19994;-68
2022/11/14 01:11:01;;;;;;;;;;;27.50;66.10;;;;;;5020006;28;20824;-72
2022/11/14 01:13:31;;;;;;;;;;;27.40;65.70;;;;;;5017011;28;19984;-66
2022/11/14 01:16:00;;;;;;;;;;;27.40;65.90;;;;;;5019123;28;21346;-68
2022/11/14 01:18:26;;;;;;;;;;;27.50;64.50;;;;;;5018719;28;19928;-68
2022/11/14 01:20:53;;;;;;;;;;;27.60;64.90;;;;;;5018607;28;19910;-67
2022/11/14 01:23:19;;;;;;;;;;;27.70;65.50;;;;;;5019770;28;19921;-66
2022/11/14 01:25:46;;;;;;;;;;;27.80;64.50;;;;;;5017124;28;19987;-68
2022/11/14 01:28:15;;;;;;;;;;;27.50;64.10;;;;;;5019652;28;20640;-67
2022/11/14 01:30:41;;;;;;;;;;;27.50;64.30;;;;;;5018070;28;20442;-67
2022/11/14 01:33:08;;;;;;;;;;;27.60;62.30;;;;;;5020377;28;19915;-67
2022/11/14 01:35:36;;;;;;;;;;;27.50;62.10;;;;;;5016814;28;20132;-67
2022/11/14 01:38:03;;;;;;;;;;;27.40;63.10;;;;;;5027779;28;20561;-67
2022/11/14 01:40:30;;;;;;;;;;;27.50;62.80;;;;;;5017188;28;19929;-73
2022/11/14 01:43:15;;;;;;;;;;;27.60;62.20;;;;;;5017177;28;19928;-66
2022/11/14 01:45:50;;;;;;;;;;;27.70;61.80;;;;;;5012704;28;19913;-70
2022/11/14 01:48:25;;;;;;;;;;;27.80;62.50;;;;;;5025270;28;20362;-67
2022/11/14 01:50:57;;;;;;;;;;;28.00;62.00;;;;;;5017162;28;20036;-68
2022/11/14 01:53:24;;;;;;;;;;;28.00;60.70;;;;;;5019365;28;20003;-69
2022/11/14 01:55:52;;;;;;;;;;;28.00;61.20;;;;;;5019391;28;19920;-70
2022/11/14 01:58:19;;;;;;;;;;;28.10;61.00;;;;;;5021125;28;19913;-66
2022/11/14 02:00:45;;;;;;;;;;;28.10;60.30;;;;;;5017642;28;19909;-70
2022/11/14 02:03:13;;;;;;;;;;;28.10;60.20;;;;;;5001142;28;19925;-70
2022/11/14 02:05:40;;;;;;;;;;;28.20;62.20;;;;;;5017633;28;19913;-68
2022/11/14 02:08:10;;;;;;;;;;;28.50;61.90;;;;;;5025936;28;20315;-70
2022/11/14 02:10:37;;;;;;;;;;;28.70;60.60;;;;;;4999225;28;19916;-67
2022/11/14 02:13:04;;;;;;;;;;;28.90;60.80;;;;;;5019487;28;20380;-72
2022/11/14 02:15:30;;;;;;;;;;;29.00;60.10;;;;;;5019271;28;19913;-66
2022/11/14 02:17:57;;;;;;;;;;;29.10;58.70;;;;;;5036848;28;19917;-72
2022/11/14 02:20:30;;;;;;;;;;;28.90;59.20;;;;;;5030645;28;19944;-71
2022/11/14 02:22:57;;;;;;;;;;;28.70;59.30;;;;;;5016737;28;20175;-67
2022/11/14 02:25:24;;;;;;;;;;;28.80;59.30;;;;;;5018980;28;19928;-71
2022/11/14 02:27:50;;;;;;;;;;;28.80;59.10;;;;;;5022471;28;20059;-68
2022/11/14 02:30:19;;;;;;;;;;;28.90;59.90;;;;;;5001737;28;19916;-67
2022/11/14 02:32:45;;;;;;;;;;;29.30;59.20;;;;;;5017701;28;19917;-68
2022/11/14 02:35:12;;;;;;;;;;;29.10;58.00;;;;;;5018654;28;19913;-66
2022/11/14 02:37:39;;;;;;;;;;;29.20;57.20;;;;;;5031684;28;20603;-67
2022/11/14 02:40:06;;;;;;;;;;;29.40;57.60;;;;;;5017991;28;19932;-67
2022/11/14 02:42:32;;;;;;;;;;;29.80;57.60;;;;;;5000786;28;20275;-67
2022/11/14 02:44:59;;;;;;;;;;;30.30;56.90;;;;;;5017142;28;19920;-66
2022/11/14 02:47:26;;;;;;;;;;;31.10;55.10;;;;;;5033570;28;19909;-69
2022/11/14 02:49:53;;;;;;;;;;;31.00;54.50;;;;;;5017957;28;20023;-67
2022/11/14 02:52:19;;;;;;;;;;;30.40;56.10;;;;;;5022047;28;19917;-70
2022/11/14 02:54:46;;;;;;;;;;;29.80;56.50;;;;;;5002904;28;19917;-70
2022/11/14 02:57:12;;;;;;;;;;;29.70;56.60;;;;;;5030220;28;19915;-67
2022/11/14 02:59:39;;;;;;;;;;;30.20;57.20;;;;;;5022084;28;19913;-70
2022/11/14 03:02:06;;;;;;;;;;;31.30;55.40;;;;;;5017255;28;19991;-67
2022/11/14 03:04:32;;;;;;;;;;;32.10;53.70;;;;;;5020469;28;19913;-69
2022/11/14 03:06:59;;;;;;;;;;;32.90;52.20;;;;;;5023051;28;20768;-68
2022/11/14 03:09:25;;;;;;;;;;;33.20;50.80;;;;;;5021325;28;19925;-66
2022/11/14 03:11:52;;;;;;;;;;;33.70;50.40;;;;;;5019225;28;19974;-67
2022/11/14 03:14:19;;;;;;;;;;;33.90;50.30;;;;;;5021426;28;19909;-66
2022/11/14 03:16:45;;;;;;;;;;;34.00;51.00;;;;;;5029879;28;20029;-66
2022/11/14 03:19:12;;;;;;;;;;;34.40;51.20;;;;;;5035250;28;19909;-67
2022/11/14 03:21:39;;;;;;;;;;;34.60;52.60;;;;;;5020588;28;20378;-66
2022/11/14 03:24:06;;;;;;;;;;;35.60;52.20;;;;;;5020262;28;19910;-67
2022/11/14 03:26:32;;;;;;;;;;;36.10;51.10;;;;;;5010436;28;19995;-66
2022/11/14 03:28:59;;;;;;;;;;;36.40;51.20;;;;;;5020359;28;19909;-65
2022/11/14 03:31:26;;;;;;;;;;;36.60;50.50;;;;;;5021261;28;19960;-65
2022/11/14 03:33:52;;;;;;;;;;;36.20;51.40;;;;;;5019828;28;20615;-67
2022/11/14 03:36:19;;;;;;;;;;;36.30;50.10;;;;;;5027722;28;19913;-66
2022/11/14 03:38:46;;;;;;;;;;;36.30;50.20;;;;;;5041353;28;19909;-66
2022/11/14 03:41:12;;;;;;;;;;;36.60;50.10;;;;;;5040500;28;19928;-68
2022/11/14 03:43:39;;;;;;;;;;;36.80;50.00;;;;;;5023368;28;19918;-65
2022/11/14 03:46:06;;;;;;;;;;;37.00;48.70;;;;;;5023950;28;19932;-65
2022/11/14 03:48:32;;;;;;;;;;;36.50;49.20;;;;;;5038779;28;20350;-65
2022/11/14 03:50:59;;;;;;;;;;;36.20;50.40;;;;;;5019113;28;19917;-65
2022/11/14 03:53:27;;;;;;;;;;;36.20;50.20;;;;;;5021179;28;20394;-65
2022/11/14 03:55:53;;;;;;;;;;;36.90;49.10;;;;;;5022009;28;19920;-66
2022/11/14 03:58:20;;;;;;;;;;;36.50;48.70;;;;;;5030587;28;20362;-67
2022/11/14 04:00:47;;;;;;;;;;;35.90;49.20;;;;;;5020822;28;20011;-67
2022/11/14 04:03:13;;;;;;;;;;;36.30;50.30;;;;;;5019105;28;19921;-68
2022/11/14 04:05:43;;;;;;;;;;;37.10;49.60;;;;;;5020801;28;20259;-69
2022/11/14 04:08:10;;;;;;;;;;;37.60;49.20;;;;;;5024987;28;19920;-70
2022/11/14 04:10:37;;;;;;;;;;;38.00;48.50;;;;;;5020855;28;19916;-67
2022/11/14 04:13:04;;;;;;;;;;;38.10;48.10;;;;;;5019533;28;19916;-66
2022/11/14 04:15:30;;;;;;;;;;;37.90;48.50;;;;;;5020235;28;19913;-68
2022/11/14 04:17:57;;;;;;;;;;;37.50;48.40;;;;;;5023714;28;19913;-66
2022/11/14 04:20:23;;;;;;;;;;;36.50;50.20;;;;;;5019906;28;20104;-72
2022/11/14 04:22:50;;;;;;;;;;;35.80;49.30;;;;;;5001249;28;19952;-67
2022/11/14 04:25:17;;;;;;;;;;;35.50;49.40;;;;;;5018416;28;19920;-70
2022/11/14 04:27:43;;;;;;;;;;;35.50;49.30;;;;;;5019318;28;19920;-69
2022/11/14 04:30:10;;;;;;;;;;;35.50;50.30;;;;;;5019077;28;19913;-73
2022/11/14 04:32:37;;;;;;;;;;;35.70;49.70;;;;;;5019676;28;19909;-70
2022/11/14 04:35:04;;;;;;;;;;;36.20;49.00;;;;;;5017582;28;20416;-74
2022/11/14 04:37:30;;;;;;;;;;;36.70;48.50;;;;;;5029059;28;20325;-73
2022/11/14 04:39:59;;;;;;;;;;;37.30;47.60;;;;;;5019810;28;19960;-72
2022/11/14 04:42:26;;;;;;;;;;;37.10;46.30;;;;;;5018153;28;19925;-69
2022/11/14 04:44:52;;;;;;;;;;;35.50;46.90;;;;;;5019352;28;20412;-71
2022/11/14 04:47:19;;;;;;;;;;;34.00;48.40;;;;;;5028267;28;20390;-71
2022/11/14 04:49:46;;;;;;;;;;;33.40;49.40;;;;;;5020162;28;19913;-68
2022/11/14 04:52:13;;;;;;;;;;;33.20;49.10;;;;;;5017470;28;20366;-66
2022/11/14 04:54:39;;;;;;;;;;;33.00;50.10;;;;;;5022450;28;19917;-71
2022/11/14 04:57:06;;;;;;;;;;;33.00;50.10;;;;;;5023814;28;19920;-69
2022/11/14 04:59:33;;;;;;;;;;;33.70;50.50;;;;;;5019562;28;19909;-71
2022/11/14 05:01:59;;;;;;;;;;;34.90;49.10;;;;;;5019432;28;19959;-68
2022/11/14 05:04:26;;;;;;;;;;;35.20;49.00;;;;;;5017699;28;19913;-71
2022/11/14 05:06:52;;;;;;;;;;;35.80;49.40;;;;;;5030104;28;19955;-72
2022/11/14 05:09:19;;;;;;;;;;;35.40;47.90;;;;;;5037288;28;19904;-67
2022/11/14 05:11:46;;;;;;;;;;;34.50;50.00;;;;;;5039591;28;19913;-73
2022/11/14 05:14:12;;;;;;;;;;;33.90;50.70;;;;;;5018323;28;19967;-72
2022/11/14 05:16:39;;;;;;;;;;;33.80;50.00;;;;;;5018850;28;19914;-71
2022/11/14 05:19:05;;;;;;;;;;;34.30;49.20;;;;;;5017095;28;19909;-68
2022/11/14 05:21:32;;;;;;;;;;;34.40;47.90;;;;;;5001547;28;20274;-67
2022/11/14 05:23:59;;;;;;;;;;;33.90;48.50;;;;;;5018991;28;19909;-72
2022/11/14 05:26:25;;;;;;;;;;;33.30;49.20;;;;;;5023419;28;19908;-69
2022/11/14 05:28:52;;;;;;;;;;;32.50;50.00;;;;;;5036556;28;19916;-72
2022/11/14 05:31:19;;;;;;;;;;;32.40;50.80;;;;;;5017387;28;19944;-69
2022/11/14 05:33:49;;;;;;;;;;;32.80;49.50;;;;;;5022000;28;20101;-71
2022/11/14 05:36:16;;;;;;;;;;;32.60;50.10;;;;;;5022298;28;20397;-71
2022/11/14 05:38:43;;;;;;;;;;;31.80;50.90;;;;;;4997474;28;19913;-69
2022/11/14 05:41:12;;;;;;;;;;;31.00;51.90;;;;;;4984147;28;19940;-68
2022/11/14 05:43:39;;;;;;;;;;;30.30;53.50;;;;;;4982277;28;19929;-67
2022/11/14 05:46:06;;;;;;;;;;;30.00;53.20;;;;;;4981393;28;19959;-66
2022/11/14 05:48:33;;;;;;;;;;;29.70;53.10;;;;;;4988271;28;20422;-67
2022/11/14 05:51:01;;;;;;;;;;;29.20;54.00;;;;;;5018170;28;19920;-67
2022/11/14 05:53:28;;;;;;;;;;;29.50;54.50;;;;;;5016843;28;20729;-67
2022/11/14 05:55:55;;;;;;;;;;;29.90;53.80;;;;;;5021199;28;19917;-67
2022/11/14 05:58:22;;;;;;;;;;;29.80;54.10;;;;;;5023358;28;20464;-69
2022/11/14 06:00:48;;;;;;;;;;;29.40;54.40;;;;;;5013471;28;19971;-69
2022/11/14 06:03:15;;;;;;;;;;;29.30;54.40;;;;;;5018209;28;19952;-69
2022/11/14 06:05:42;;;;;;;;;;;29.00;54.80;;;;;;5016811;28;19916;-68
2022/11/14 06:08:08;;;;;;;;;;;28.80;54.90;;;;;;5018270;28;19913;-69
2022/11/14 06:10:35;;;;;;;;;;;28.70;55.20;;;;;;5018699;28;19917;-67
2022/11/14 06:13:02;;;;;;;;;;;28.60;56.10;;;;;;5017227;28;19913;-68
2022/11/14 06:15:28;;;;;;;;;;;28.80;56.80;;;;;;5018038;28;19909;-69
2022/11/14 06:17:56;;;;;;;;;;;29.10;55.10;;;;;;5036031;28;20016;-71
2022/11/14 06:20:23;;;;;;;;;;;29.30;54.70;;;;;;5018449;28;19954;-69
2022/11/14 06:22:53;;;;;;;;;;;29.10;54.50;;;;;;5016642;28;20290;-69
2022/11/14 06:25:19;;;;;;;;;;;28.80;56.60;;;;;;5014217;28;19909;-68
2022/11/14 06:27:46;;;;;;;;;;;28.70;56.00;;;;;;5022889;28;20059;-67
2022/11/14 06:30:13;;;;;;;;;;;28.40;58.10;;;;;;5021899;28;19909;-70
2022/11/14 06:32:39;;;;;;;;;;;28.10;59.50;;;;;;5022281;28;19913;-70
2022/11/14 06:35:07;;;;;;;;;;;27.90;60.20;;;;;;5020222;28;19923;-70
2022/11/14 06:37:36;;;;;;;;;;;27.60;61.10;;;;;;5028135;28;19920;-70
2022/11/14 06:40:02;;;;;;;;;;;27.60;61.40;;;;;;5020551;28;20004;-69
2022/11/14 06:42:29;;;;;;;;;;;27.60;61.30;;;;;;5022086;28;20304;-69
2022/11/14 06:44:56;;;;;;;;;;;27.70;61.20;;;;;;5020441;28;19916;-69
2022/11/14 06:47:22;;;;;;;;;;;27.60;61.00;;;;;;5036686;28;19920;-69
2022/11/14 06:49:49;;;;;;;;;;;27.70;61.50;;;;;;5041687;28;19909;-71
2022/11/14 06:52:15;;;;;;;;;;;27.70;61.20;;;;;;5041299;28;19970;-72
2022/11/14 06:54:42;;;;;;;;;;;27.70;60.90;;;;;;5036393;28;19920;-72
2022/11/14 06:57:09;;;;;;;;;;;27.60;60.10;;;;;;5032105;28;19908;-70
2022/11/14 06:59:35;;;;;;;;;;;27.70;61.30;;;;;;5038997;28;19912;-69
2022/11/14 07:02:02;;;;;;;;;;;27.60;61.70;;;;;;5020847;28;19917;-72
2022/11/14 07:04:29;;;;;;;;;;;27.60;61.20;;;;;;5019189;28;20297;-71
2022/11/14 07:06:55;;;;;;;;;;;27.50;60.80;;;;;;5020324;28;19909;-70
2022/11/14 07:09:22;;;;;;;;;;;27.50;61.10;;;;;;5022126;28;20320;-69
2022/11/14 07:11:48;;;;;;;;;;;27.40;61.40;;;;;;5022882;28;19963;-72
2022/11/14 07:14:15;;;;;;;;;;;27.40;60.80;;;;;;5021288;28;19996;-71
2022/11/14 07:16:42;;;;;;;;;;;27.20;59.80;;;;;;5021547;28;19909;-71
2022/11/14 07:19:08;;;;;;;;;;;27.20;59.80;;;;;;5020496;28;20665;-71
2022/11/14 07:21:35;;;;;;;;;;;27.20;60.30;;;;;;5021886;28;19921;-71
2022/11/14 07:24:02;;;;;;;;;;;27.10;59.00;;;;;;5020236;28;20112;-72
2022/11/14 07:26:29;;;;;;;;;;;27.00;59.40;;;;;;5021065;28;19913;-68
2022/11/14 07:28:56;;;;;;;;;;;26.90;60.60;;;;;;5020818;28;19938;-72
2022/11/14 07:31:22;;;;;;;;;;;26.90;60.00;;;;;;5021155;28;20404;-69
2022/11/14 07:33:49;;;;;;;;;;;26.80;59.90;;;;;;5021779;28;19909;-69
2022/11/14 07:36:16;;;;;;;;;;;26.80;60.60;;;;;;5019094;28;19910;-69
2022/11/14 07:38:43;;;;;;;;;;;26.60;59.80;;;;;;5020591;28;19920;-69
2022/11/14 07:41:10;;;;;;;;;;;26.50;60.40;;;;;;5020053;28;19921;-69
2022/11/14 07:43:37;;;;;;;;;;;26.40;60.30;;;;;;5020984;28;19924;-67
2022/11/14 07:46:08;;;;;;;;;;;26.30;60.10;;;;;;5019396;28;19909;-70
2022/11/14 07:48:35;;;;;;;;;;;26.20;60.70;;;;;;5020658;28;19909;-68
2022/11/14 07:51:02;;;;;;;;;;;26.00;60.40;;;;;;5020321;28;19916;-68
2022/11/14 07:53:29;;;;;;;;;;;25.90;60.90;;;;;;5001875;28;19933;-68
2022/11/14 07:55:56;;;;;;;;;;;25.80;61.30;;;;;;5015735;28;19913;-67
2022/11/14 07:58:23;;;;;;;;;;;25.70;61.10;;;;;;5020072;28;20002;-69
2022/11/14 08:00:50;;;;;;;;;;;25.60;61.80;;;;;;5020980;28;19917;-69
2022/11/14 08:03:16;;;;;;;;;;;25.50;61.60;;;;;;5001557;28;20509;-68
2022/11/14 08:05:43;;;;;;;;;;;25.50;61.50;;;;;;5020608;28;19909;-70
2022/11/14 08:08:10;;;;;;;;;;;25.40;61.50;;;;;;5019702;28;19912;-70
2022/11/14 08:10:36;;;;;;;;;;;25.40;62.00;;;;;;5003803;28;19917;-70
2022/11/14 08:13:04;;;;;;;;;;;25.40;62.60;;;;;;5012415;28;19975;-71
2022/11/14 08:15:31;;;;;;;;;;;25.30;63.00;;;;;;5023728;28;20408;-71
2022/11/14 08:17:59;;;;;;;;;;;25.40;62.90;;;;;;5010010;28;19913;-71
2022/11/14 08:20:26;;;;;;;;;;;25.30;62.90;;;;;;5008731;28;20009;-69
2022/11/14 08:22:53;;;;;;;;;;;25.30;63.10;;;;;;5009544;28;20271;-70
2022/11/14 08:25:20;;;;;;;;;;;25.10;62.80;;;;;;5006253;28;19913;-69
2022/11/14 08:27:46;;;;;;;;;;;25.10;63.40;;;;;;5010651;28;19909;-69
2022/11/14 08:30:13;;;;;;;;;;;24.90;63.80;;;;;;5007254;28;19917;-66
2022/11/14 08:32:40;;;;;;;;;;;24.80;63.80;;;;;;5009898;28;19941;-69
2022/11/14 08:35:06;;;;;;;;;;;24.70;64.20;;;;;;5007276;28;19920;-73
2022/11/14 08:37:33;;;;;;;;;;;24.60;64.50;;;;;;5019253;28;20354;-69
2022/11/14 08:40:00;;;;;;;;;;;24.50;64.90;;;;;;5019222;28;19921;-69
2022/11/14 08:42:26;;;;;;;;;;;24.50;64.50;;;;;;5006045;28;19929;-69
2022/11/14 08:44:53;;;;;;;;;;;24.40;64.10;;;;;;5019181;28;20374;-68
2022/11/14 08:47:20;;;;;;;;;;;24.30;63.20;;;;;;5014794;28;20393;-68
2022/11/14 08:49:46;;;;;;;;;;;24.30;63.80;;;;;;5019172;28;19921;-70
2022/11/14 08:52:13;;;;;;;;;;;24.20;64.10;;;;;;5007148;28;19916;-70
2022/11/14 08:54:39;;;;;;;;;;;24.10;63.80;;;;;;5019140;28;20200;-69
2022/11/14 08:57:06;;;;;;;;;;;24.00;63.90;;;;;;5019083;28;19913;-73
2022/11/14 08:59:33;;;;;;;;;;;23.90;64.00;;;;;;5018002;28;20004;-70
2022/11/14 09:02:00;;;;;;;;;;;23.90;63.10;;;;;;5007694;28;20008;-69
2022/11/14 09:04:26;;;;;;;;;;;23.80;63.40;;;;;;5008189;28;19947;-71
2022/11/14 09:06:53;;;;;;;;;;;23.80;63.70;;;;;;5009381;28;19909;-72
2022/11/14 09:09:19;;;;;;;;;;;23.70;63.00;;;;;;5007467;28;20363;-68
2022/11/14 09:11:46;;;;;;;;;;;23.70;63.20;;;;;;5012731;28;19986;-69
2022/11/14 09:14:13;;;;;;;;;;;23.60;63.10;;;;;;5018166;28;20009;-68
2022/11/14 09:16:39;;;;;;;;;;;23.60;63.10;;;;;;5018297;28;20377;-71
2022/11/14 09:19:06;;;;;;;;;;;23.50;63.60;;;;;;5009046;28;19910;-71
2022/11/14 09:21:33;;;;;;;;;;;23.50;64.10;;;;;;5011371;28;19913;-68
2022/11/14 09:23:59;;;;;;;;;;;23.50;64.20;;;;;;5018369;28;19921;-67
2022/11/14 09:26:26;;;;;;;;;;;23.40;64.60;;;;;;5008818;28;19909;-68
2022/11/14 09:28:52;;;;;;;;;;;23.40;65.10;;;;;;4997440;28;19921;-69
2022/11/14 09:31:19;;;;;;;;;;;23.30;65.50;;;;;;4989281;28;19917;-71
2022/11/14 09:33:46;;;;;;;;;;;23.40;66.30;;;;;;5016899;28;19981;-67
2022/11/14 09:36:14;;;;;;;;;;;23.30;66.50;;;;;;5020279;28;19913;-70
2022/11/14 09:38:43;;;;;;;;;;;23.30;66.40;;;;;;5021843;28;19917;-68
2022/11/14 09:41:25;;;;;;;;;;;23.30;66.60;;;;;;5037799;28;19921;-67
2022/11/14 09:43:55;;;;;;;;;;;23.10;66.60;;;;;;5016536;28;19925;-69
2022/11/14 09:46:23;;;;;;;;;;;23.10;67.30;;;;;;5014997;28;19914;-69
2022/11/14 09:48:51;;;;;;;;;;;23.00;67.40;;;;;;5017969;28;19913;-67
2022/11/14 09:51:22;;;;;;;;;;;22.90;67.50;;;;;;5018233;28;19913;-68
2022/11/14 09:53:54;;;;;;;;;;;22.90;68.10;;;;;;5018523;28;19994;-67
2022/11/14 09:56:25;;;;;;;;;;;22.80;68.30;;;;;;5018283;28;19932;-69
2022/11/14 09:58:52;;;;;;;;;;;22.80;68.40;;;;;;5019657;28;20286;-70
2022/11/14 10:01:19;;;;;;;;;;;22.80;69.00;;;;;;5040031;28;19996;-70
2022/11/14 10:03:48;;;;;;;;;;;22.70;69.10;;;;;;5029287;28;20075;-71
2022/11/14 10:06:17;;;;;;;;;;;22.60;69.30;;;;;;5022457;28;19920;-68
2022/11/14 10:08:44;;;;;;;;;;;22.50;69.20;;;;;;5020781;28;19913;-70
2022/11/14 10:11:20;;;;;;;;;;;22.50;69.30;;;;;;5024217;28;19914;-67
2022/11/14 10:13:47;;;;;;;;;;;22.50;70.10;;;;;;5019696;28;19920;-69
2022/11/14 10:16:26;;;;;;;;;;;22.40;70.10;;;;;;5021129;28;20004;-68
2022/11/14 10:19:11;;;;;;;;;;;22.40;70.40;;;;;;5019642;28;20513;-71
2022/11/14 10:21:54;;;;;;;;;;;22.30;70.90;;;;;;5035606;28;20856;-69
2022/11/14 10:24:26;;;;;;;;;;;22.30;70.50;;;;;;5023932;28;19909;-68
2022/11/14 10:27:01;;;;;;;;;;;22.20;71.10;;;;;;5021123;28;20657;-72
2022/11/14 10:29:33;;;;;;;;;;;22.10;71.10;;;;;;5014946;28;19909;-70
2022/11/14 10:32:00;;;;;;;;;;;22.10;71.20;;;;;;5021578;28;19919;-69
2022/11/14 10:34:32;;;;;;;;;;;22.10;71.90;;;;;;5021653;28;19917;-71
2022/11/14 10:36:58;;;;;;;;;;;22.10;72.80;;;;;;5021342;28;19917;-69
2022/11/14 10:39:31;;;;;;;;;;;22.10;73.10;;;;;;5022433;28;19917;-70
2022/11/14 10:42:00;;;;;;;;;;;22.00;73.10;;;;;;5021802;28;19928;-68
2022/11/14 10:44:36;;;;;;;;;;;21.90;74.00;;;;;;5021869;28;19924;-68
2022/11/14 10:47:12;;;;;;;;;;;21.90;73.70;;;;;;5022149;28;20055;-69
2022/11/14 10:49:39;;;;;;;;;;;21.80;74.30;;;;;;5020347;28;19909;-69
2022/11/14 10:52:10;;;;;;;;;;;21.80;74.40;;;;;;5020268;28;20000;-68
2022/11/14 10:54:41;;;;;;;;;;;21.80;74.70;;;;;;5008988;28;19920;-67
2022/11/14 10:57:18;;;;;;;;;;;21.70;74.50;;;;;;5011120;28;19913;-68
2022/11/14 10:59:46;;;;;;;;;;;21.60;74.90;;;;;;5020031;28;19916;-70
2022/11/14 11:02:12;;;;;;;;;;;21.60;75.40;;;;;;5022204;28;19924;-71
2022/11/14 11:04:40;;;;;;;;;;;21.60;75.40;;;;;;5020649;28;19929;-69
2022/11/14 11:07:07;;;;;;;;;;;21.50;76.20;;;;;;5013762;28;19952;-68
2022/11/14 11:12:38;;;;;;;;;;;21.50;76.60;;;;;;5018244;28;19920;-68
2022/11/14 11:15:20;;;;;;;;;;;21.40;77.10;;;;;;5020046;28;20304;-70
2022/11/14 11:18:03;;;;;;;;;;;21.40;78.00;;;;;;5016720;28;19921;-67
2022/11/14 11:20:33;;;;;;;;;;;21.40;77.50;;;;;;5021122;28;20011;-70
2022/11/14 11:23:03;;;;;;;;;;;21.30;78.20;;;;;;5018794;28;19975;-70
2022/11/14 11:25:30;;;;;;;;;;;21.20;77.70;;;;;;5021929;28;19913;-68
2022/11/14 11:28:05;;;;;;;;;;;21.20;78.10;;;;;;5017975;28;19968;-70
2022/11/14 11:30:32;;;;;;;;;;;21.00;78.50;;;;;;5021881;28;19924;-70
2022/11/14 11:33:22;;;;;;;;;;;21.10;79.40;;;;;;5021058;28;19992;-70
2022/11/14 11:35:50;;;;;;;;;;;21.00;79.60;;;;;;5018869;28;19913;-71
2022/11/14 11:38:18;;;;;;;;;;;21.00;80.20;;;;;;5010523;28;19910;-71
2022/11/14 11:40:46;;;;;;;;;;;20.90;81.00;;;;;;5020228;28;19928;-69
2022/11/14 11:43:16;;;;;;;;;;;20.80;81.80;;;;;;5021996;28;20374;-70
2022/11/14 11:45:45;;;;;;;;;;;20.80;82.30;;;;;;5021310;28;20529;-70
2022/11/14 11:48:22;;;;;;;;;;;20.70;82.60;;;;;;5009013;28;19929;-70
2022/11/14 11:50:49;;;;;;;;;;;20.70;82.90;;;;;;5021225;28;19913;-72
2022/11/14 11:53:24;;;;;;;;;;;20.60;83.10;;;;;;5020068;28;19909;-70
2022/11/14 11:55:52;;;;;;;;;;;20.60;83.00;;;;;;5020415;28;19913;-70
2022/11/14 11:58:25;;;;;;;;;;;20.50;79.50;;;;;;5017809;28;19967;-72
2022/11/14 12:00:54;;;;;;;;;;;20.60;81.00;;;;;;5020321;28;19945;-72
2022/11/14 12:03:22;;;;;;;;;;;20.60;81.50;;;;;;5011463;28;20063;-71
2022/11/14 12:05:51;;;;;;;;;;;20.60;82.20;;;;;;5010347;28;19915;-70
2022/11/14 12:08:30;;;;;;;;;;;20.50;82.30;;;;;;5022252;28;20324;-69
2022/11/14 12:10:57;;;;;;;;;;;20.50;80.20;;;;;;5019453;28;19914;-70
2022/11/14 12:13:40;;;;;;;;;;;20.50;81.20;;;;;;5019222;28;19917;-71
2022/11/14 12:16:13;;;;;;;;;;;20.50;80.80;;;;;;5018556;28;20269;-71
2022/11/14 12:18:58;;;;;;;;;;;20.40;79.90;;;;;;5020756;28;19921;-69
2022/11/14 12:21:44;;;;;;;;;;;20.40;79.90;;;;;;5035095;28;19917;-69
2022/11/14 12:24:25;;;;;;;;;;;20.40;79.90;;;;;;5019824;28;20416;-69
2022/11/14 12:27:11;;;;;;;;;;;20.40;80.00;;;;;;5020996;28;19909;-69
2022/11/14 12:30:03;;;;;;;;;;;20.40;80.70;;;;;;5019731;28;19920;-68
2022/11/14 12:32:37;;;;;;;;;;;20.40;80.40;;;;;;5019124;28;19925;-71
2022/11/14 12:35:07;;;;;;;;;;;20.40;80.20;;;;;;5020517;28;19909;-70
2022/11/14 12:37:42;;;;;;;;;;;20.40;79.70;;;;;;5018269;28;20418;-69
2022/11/14 12:40:18;;;;;;;;;;;20.40;80.80;;;;;;5021833;28;19928;-68
2022/11/14 12:42:47;;;;;;;;;;;20.40;81.20;;;;;;5020097;28;19921;-70
2022/11/14 12:45:32;;;;;;;;;;;20.40;81.50;;;;;;5020494;28;19918;-71
2022/11/14 12:48:14;;;;;;;;;;;20.40;82.30;;;;;;5020907;28;19909;-70
2022/11/14 12:50:41;;;;;;;;;;;20.30;82.90;;;;;;5020213;28;19909;-69
2022/11/14 12:53:34;;;;;;;;;;;20.40;81.50;;;;;;5020852;28;20413;-69
2022/11/14 12:56:07;;;;;;;;;;;20.30;81.30;;;;;;5020895;28;19956;-69
2022/11/14 12:58:43;;;;;;;;;;;20.30;82.10;;;;;;5018330;28;19913;-70
2022/11/14 13:01:28;;;;;;;;;;;20.20;82.20;;;;;;5020468;28;19909;-69
2022/11/14 13:03:54;;;;;;;;;;;20.20;82.20;;;;;;5020158;28;19929;-69
2022/11/14 13:06:42;;;;;;;;;;;20.20;82.90;;;;;;5018056;28;19955;-69
2022/11/14 13:09:32;;;;;;;;;;;20.10;82.30;;;;;;5020268;28;19910;-69
2022/11/14 13:23:48;;;;;;;;;;;20.00;82.30;;;;;;5019402;28;19927;-70
2022/11/14 13:26:15;;;;;;;;;;;19.90;82.40;;;;;;5019169;28;19921;-69
2022/11/14 13:28:47;;;;;;;;;;;19.90;82.60;;;;;;5018772;28;20023;-69
2022/11/14 13:31:16;;;;;;;;;;;19.90;83.40;;;;;;5019291;28;19916;-69
2022/11/14 13:33:50;;;;;;;;;;;19.90;83.20;;;;;;5018979;28;19909;-70
2022/11/14 13:36:29;;;;;;;;;;;19.90;83.10;;;;;;5018700;28;20369;-68
2022/11/14 13:38:56;;;;;;;;;;;19.90;83.30;;;;;;5019491;28;19910;-72
2022/11/14 13:41:23;;;;;;;;;;;19.80;83.40;;;;;;5019287;28;19925;-71
2022/11/14 13:43:49;;;;;;;;;;;19.90;83.50;;;;;;5019247;28;19924;-69
2022/11/14 13:46:27;;;;;;;;;;;19.80;83.60;;;;;;5000873;28;19936;-69
2022/11/14 13:49:02;;;;;;;;;;;19.80;84.20;;;;;;5019468;28;19955;-70
2022/11/14 13:51:29;;;;;;;;;;;19.80;84.00;;;;;;5018369;28;19909;-69
2022/11/14 13:53:56;;;;;;;;;;;19.70;84.20;;;;;;5019713;28;19940;-69
2022/11/14 13:56:48;;;;;;;;;;;19.70;84.90;;;;;;5019522;28;19913;-69
2022/11/14 13:59:21;;;;;;;;;;;19.80;85.00;;;;;;5010395;28;19913;-70
2022/11/14 14:01:47;;;;;;;;;;;19.70;85.30;;;;;;5018288;28;20165;-69
2022/11/14 14:04:29;;;;;;;;;;;19.70;84.80;;;;;;5019094;28;19909;-69
2022/11/14 14:06:59;;;;;;;;;;;19.60;85.30;;;;;;5019225;28;20407;-71
2022/11/14 14:09:44;;;;;;;;;;;19.60;85.70;;;;;;5019075;28;19909;-69
2022/11/14 14:12:25;;;;;;;;;;;19.60;86.00;;;;;;5019340;28;19939;-70
2022/11/14 14:15:18;;;;;;;;;;;19.60;85.80;;;;;;5018822;28;19974;-70
2022/11/14 14:17:48;;;;;;;;;;;19.50;86.20;;;;;;5000842;28;20309;-70
2022/11/14 14:20:14;;;;;;;;;;;19.50;86.90;;;;;;5001612;28;20285;-71
2022/11/14 14:22:44;;;;;;;;;;;19.60;86.90;;;;;;5017684;28;19960;-70
2022/11/14 14:25:13;;;;;;;;;;;19.60;87.10;;;;;;5019965;28;19916;-69
2022/11/14 14:27:40;;;;;;;;;;;19.60;87.50;;;;;;5017838;28;19909;-69
2022/11/14 14:30:08;;;;;;;;;;;19.60;87.50;;;;;;5019722;28;19909;-69
2022/11/14 14:32:35;;;;;;;;;;;19.50;87.60;;;;;;5017612;28;19909;-69
2022/11/14 14:35:20;;;;;;;;;;;19.40;88.80;;;;;;5019877;28;19916;-69
2022/11/14 14:37:50;;;;;;;;;;;19.50;89.10;;;;;;5018776;28;20379;-70
2022/11/14 14:40:33;;;;;;;;;;;19.40;89.40;;;;;;5019302;28;20039;-71